sensor_id;sensor_type;location;lat;lon;timestamp;temperature;humidity
71188;DHT22;58893;53.130;8.158;2023-04-24T00:00:55;15.80;95.00
71188;DHT22;58893;53.130;8.158;2023-04-24T00:03:25;15.80;94.90
71188;DHT22;58893;53.130;8.158;2023-04-24T00:05:56;15.80;94.80
71188;DHT22;58893;53.130;8.158;2023-04-24T00:08:21;15.80;94.70
71188;DHT22;58893;53.130;8.158;2023-04-24T00:10:49;15.80;94.30
71188;DHT22;58893;53.130;8.158;2023-04-24T00:13:14;15.80;93.40
71188;DHT22;58893;53.130;8.158;2023-04-24T00:15:40;15.80;92.20
71188;DHT22;58893;53.130;8.158;2023-04-24T00:18:06;15.80;90.60
71188;DHT22;58893;53.130;8.158;2023-04-24T00:20:31;15.70;88.60
71188;DHT22;58893;53.130;8.158;2023-04-24T00:23:01;15.70;87.60
71188;DHT22;58893;53.130;8.158;2023-04-24T00:25:26;15.60;86.30
71188;DHT22;58893;53.130;8.158;2023-04-24T00:27:52;15.60;86.10
71188;DHT22;58893;53.130;8.158;2023-04-24T00:30:18;15.60;85.70
71188;DHT22;58893;53.130;8.158;2023-04-24T00:32:43;15.60;85.40
71188;DHT22;58893;53.130;8.158;2023-04-24T00:35:09;15.50;84.90
71188;DHT22;58893;53.130;8.158;2023-04-24T00:37:36;15.50;84.90
71188;DHT22;58893;53.130;8.158;2023-04-24T00:40:02;15.50;84.70
71188;DHT22;58893;53.130;8.158;2023-04-24T00:42:28;15.50;84.70
71188;DHT22;58893;53.130;8.158;2023-04-24T00:44:54;15.50;84.60
71188;DHT22;58893;53.130;8.158;2023-04-24T00:47:19;15.40;85.10
71188;DHT22;58893;53.130;8.158;2023-04-24T00:49:47;15.40;84.60
71188;DHT22;58893;53.130;8.158;2023-04-24T00:52:12;15.40;84.80
71188;DHT22;58893;53.130;8.158;2023-04-24T00:54:43;15.40;84.80
71188;DHT22;58893;53.130;8.158;2023-04-24T00:57:10;15.40;84.90
71188;DHT22;58893;53.130;8.158;2023-04-24T00:59:36;15.40;85.00
71188;DHT22;58893;53.130;8.158;2023-04-24T01:02:02;15.40;85.40
71188;DHT22;58893;53.130;8.158;2023-04-24T01:04:28;15.40;85.30
71188;DHT22;58893;53.130;8.158;2023-04-24T01:06:54;15.40;85.60
71188;DHT22;58893;53.130;8.158;2023-04-24T01:09:23;15.40;85.70
71188;DHT22;58893;53.130;8.158;2023-04-24T01:11:49;15.40;85.80
71188;DHT22;58893;53.130;8.158;2023-04-24T01:14:15;15.40;85.80
71188;DHT22;58893;53.130;8.158;2023-04-24T01:16:41;15.40;85.80
71188;DHT22;58893;53.130;8.158;2023-04-24T01:19:07;15.40;85.90
71188;DHT22;58893;53.130;8.158;2023-04-24T01:21:36;15.40;86.00
71188;DHT22;58893;53.130;8.158;2023-04-24T01:24:03;15.40;86.40
71188;DHT22;58893;53.130;8.158;2023-04-24T01:26:29;15.40;85.20
71188;DHT22;58893;53.130;8.158;2023-04-24T01:28:56;15.40;84.50
71188;DHT22;58893;53.130;8.158;2023-04-24T01:31:21;15.30;83.80
71188;DHT22;58893;53.130;8.158;2023-04-24T01:33:47;15.30;83.20
71188;DHT22;58893;53.130;8.158;2023-04-24T01:36:13;15.30;82.50
71188;DHT22;58893;53.130;8.158;2023-04-24T01:38:39;15.30;82.40
71188;DHT22;58893;53.130;8.158;2023-04-24T01:41:05;15.30;82.50
71188;DHT22;58893;53.130;8.158;2023-04-24T01:43:31;15.30;82.10
71188;DHT22;58893;53.130;8.158;2023-04-24T01:45:57;15.30;81.80
71188;DHT22;58893;53.130;8.158;2023-04-24T01:48:23;15.30;81.70
71188;DHT22;58893;53.130;8.158;2023-04-24T01:50:49;15.30;81.80
71188;DHT22;58893;53.130;8.158;2023-04-24T01:53:14;15.30;82.10
71188;DHT22;58893;53.130;8.158;2023-04-24T01:55:40;15.30;82.20
71188;DHT22;58893;53.130;8.158;2023-04-24T01:58:06;15.30;82.30
71188;DHT22;58893;53.130;8.158;2023-04-24T02:00:32;15.30;82.30
71188;DHT22;58893;53.130;8.158;2023-04-24T02:02:58;15.30;82.60
71188;DHT22;58893;53.130;8.158;2023-04-24T02:05:24;15.30;83.00
71188;DHT22;58893;53.130;8.158;2023-04-24T02:07:49;15.30;83.60
71188;DHT22;58893;53.130;8.158;2023-04-24T02:10:15;15.30;84.20
71188;DHT22;58893;53.130;8.158;2023-04-24T02:12:41;15.30;84.90
71188;DHT22;58893;53.130;8.158;2023-04-24T02:15:06;15.30;85.00
71188;DHT22;58893;53.130;8.158;2023-04-24T02:17:32;15.20;85.00
71188;DHT22;58893;53.130;8.158;2023-04-24T02:19:58;15.20;85.30
71188;DHT22;58893;53.130;8.158;2023-04-24T02:22:23;15.20;85.30
71188;DHT22;58893;53.130;8.158;2023-04-24T02:24:49;15.20;85.30
71188;DHT22;58893;53.130;8.158;2023-04-24T02:27:15;15.20;85.30
71188;DHT22;58893;53.130;8.158;2023-04-24T02:29:40;15.20;85.40
71188;DHT22;58893;53.130;8.158;2023-04-24T02:32:06;15.20;85.30
71188;DHT22;58893;53.130;8.158;2023-04-24T02:34:32;15.20;85.00
71188;DHT22;58893;53.130;8.158;2023-04-24T02:36:57;15.20;84.90
71188;DHT22;58893;53.130;8.158;2023-04-24T02:39:23;15.20;84.80
71188;DHT22;58893;53.130;8.158;2023-04-24T02:41:49;15.20;84.90
71188;DHT22;58893;53.130;8.158;2023-04-24T02:44:14;15.20;84.50
71188;DHT22;58893;53.130;8.158;2023-04-24T02:46:40;15.20;84.30
71188;DHT22;58893;53.130;8.158;2023-04-24T02:49:07;15.20;84.30
71188;DHT22;58893;53.130;8.158;2023-04-24T02:51:32;15.20;84.10
71188;DHT22;58893;53.130;8.158;2023-04-24T02:53:58;15.20;84.00
71188;DHT22;58893;53.130;8.158;2023-04-24T02:56:24;15.20;84.10
71188;DHT22;58893;53.130;8.158;2023-04-24T02:58:49;15.20;84.30
71188;DHT22;58893;53.130;8.158;2023-04-24T03:01:15;15.20;84.40
71188;DHT22;58893;53.130;8.158;2023-04-24T03:03:41;15.20;84.50
71188;DHT22;58893;53.130;8.158;2023-04-24T03:06:06;15.10;84.50
71188;DHT22;58893;53.130;8.158;2023-04-24T03:08:33;15.10;84.60
71188;DHT22;58893;53.130;8.158;2023-04-24T03:10:59;15.10;84.80
71188;DHT22;58893;53.130;8.158;2023-04-24T03:13:25;15.10;84.80
71188;DHT22;58893;53.130;8.158;2023-04-24T03:15:54;15.10;84.70
71188;DHT22;58893;53.130;8.158;2023-04-24T03:18:19;15.10;84.50
71188;DHT22;58893;53.130;8.158;2023-04-24T03:20:48;15.10;84.20
71188;DHT22;58893;53.130;8.158;2023-04-24T03:23:14;15.10;84.00
71188;DHT22;58893;53.130;8.158;2023-04-24T03:25:39;15.10;83.70
71188;DHT22;58893;53.130;8.158;2023-04-24T03:28:06;15.10;83.60
71188;DHT22;58893;53.130;8.158;2023-04-24T03:30:31;15.10;83.50
71188;DHT22;58893;53.130;8.158;2023-04-24T03:32:57;15.10;83.50
71188;DHT22;58893;53.130;8.158;2023-04-24T03:35:23;15.10;83.50
71188;DHT22;58893;53.130;8.158;2023-04-24T03:37:48;15.10;83.60
71188;DHT22;58893;53.130;8.158;2023-04-24T03:40:14;15.00;83.20
71188;DHT22;58893;53.130;8.158;2023-04-24T03:42:39;15.00;83.20
71188;DHT22;58893;53.130;8.158;2023-04-24T03:45:06;15.10;83.40
71188;DHT22;58893;53.130;8.158;2023-04-24T03:47:31;15.00;83.30
71188;DHT22;58893;53.130;8.158;2023-04-24T03:49:57;15.00;83.00
71188;DHT22;58893;53.130;8.158;2023-04-24T03:52:23;15.00;83.00
71188;DHT22;58893;53.130;8.158;2023-04-24T03:54:48;15.00;83.00
71188;DHT22;58893;53.130;8.158;2023-04-24T03:57:14;15.00;83.00
71188;DHT22;58893;53.130;8.158;2023-04-24T03:59:39;15.00;83.00
71188;DHT22;58893;53.130;8.158;2023-04-24T04:02:05;15.00;83.00
71188;DHT22;58893;53.130;8.158;2023-04-24T04:04:31;15.00;83.10
71188;DHT22;58893;53.130;8.158;2023-04-24T04:06:56;15.00;83.20
71188;DHT22;58893;53.130;8.158;2023-04-24T04:09:26;15.00;83.20
71188;DHT22;58893;53.130;8.158;2023-04-24T04:11:52;15.00;83.50
71188;DHT22;58893;53.130;8.158;2023-04-24T04:14:17;15.00;83.50
71188;DHT22;58893;53.130;8.158;2023-04-24T04:16:43;15.00;83.80
71188;DHT22;58893;53.130;8.158;2023-04-24T04:19:09;15.00;84.00
71188;DHT22;58893;53.130;8.158;2023-04-24T04:21:34;15.00;84.20
71188;DHT22;58893;53.130;8.158;2023-04-24T04:24:00;15.00;84.40
71188;DHT22;58893;53.130;8.158;2023-04-24T04:26:26;15.00;84.50
71188;DHT22;58893;53.130;8.158;2023-04-24T04:28:52;15.00;84.60
71188;DHT22;58893;53.130;8.158;2023-04-24T04:31:19;15.00;84.80
71188;DHT22;58893;53.130;8.158;2023-04-24T04:33:45;14.90;84.90
71188;DHT22;58893;53.130;8.158;2023-04-24T04:36:11;15.00;85.20
71188;DHT22;58893;53.130;8.158;2023-04-24T04:38:37;14.90;85.40
71188;DHT22;58893;53.130;8.158;2023-04-24T04:41:03;14.90;85.50
71188;DHT22;58893;53.130;8.158;2023-04-24T04:43:28;14.90;85.70
71188;DHT22;58893;53.130;8.158;2023-04-24T04:45:57;14.90;85.90
71188;DHT22;58893;53.130;8.158;2023-04-24T04:48:22;14.90;86.00
71188;DHT22;58893;53.130;8.158;2023-04-24T04:50:48;14.90;86.20
71188;DHT22;58893;53.130;8.158;2023-04-24T04:53:14;14.90;86.60
71188;DHT22;58893;53.130;8.158;2023-04-24T04:55:39;14.90;86.90
71188;DHT22;58893;53.130;8.158;2023-04-24T04:58:05;14.90;87.10
71188;DHT22;58893;53.130;8.158;2023-04-24T05:00:31;14.90;87.40
71188;DHT22;58893;53.130;8.158;2023-04-24T05:03:01;14.90;87.50
71188;DHT22;58893;53.130;8.158;2023-04-24T05:05:27;14.80;87.50
71188;DHT22;58893;53.130;8.158;2023-04-24T05:07:52;14.80;87.60
71188;DHT22;58893;53.130;8.158;2023-04-24T05:10:18;14.80;87.60
71188;DHT22;58893;53.130;8.158;2023-04-24T05:12:43;14.80;87.60
71188;DHT22;58893;53.130;8.158;2023-04-24T05:15:09;14.80;87.70
71188;DHT22;58893;53.130;8.158;2023-04-24T05:17:35;14.80;87.70
71188;DHT22;58893;53.130;8.158;2023-04-24T05:20:02;14.70;87.90
71188;DHT22;58893;53.130;8.158;2023-04-24T05:22:29;14.70;88.00
71188;DHT22;58893;53.130;8.158;2023-04-24T05:24:54;14.70;87.90
71188;DHT22;58893;53.130;8.158;2023-04-24T05:27:20;14.70;87.90
71188;DHT22;58893;53.130;8.158;2023-04-24T05:29:46;14.70;88.00
71188;DHT22;58893;53.130;8.158;2023-04-24T05:32:12;14.80;87.90
71188;DHT22;58893;53.130;8.158;2023-04-24T05:34:37;14.70;87.60
71188;DHT22;58893;53.130;8.158;2023-04-24T05:37:03;14.70;87.50
71188;DHT22;58893;53.130;8.158;2023-04-24T05:39:33;14.70;87.60
71188;DHT22;58893;53.130;8.158;2023-04-24T05:41:59;14.70;87.50
71188;DHT22;58893;53.130;8.158;2023-04-24T05:44:26;14.70;87.50
71188;DHT22;58893;53.130;8.158;2023-04-24T05:46:52;14.70;87.60
71188;DHT22;58893;53.130;8.158;2023-04-24T05:49:18;14.70;87.60
71188;DHT22;58893;53.130;8.158;2023-04-24T05:51:43;14.70;87.30
71188;DHT22;58893;53.130;8.158;2023-04-24T05:54:09;14.70;87.40
71188;DHT22;58893;53.130;8.158;2023-04-24T05:56:37;14.70;87.60
71188;DHT22;58893;53.130;8.158;2023-04-24T05:59:03;14.70;87.10
71188;DHT22;58893;53.130;8.158;2023-04-24T06:01:29;14.70;87.20
71188;DHT22;58893;53.130;8.158;2023-04-24T06:03:55;14.70;87.30
71188;DHT22;58893;53.130;8.158;2023-04-24T06:06:20;14.70;87.10
71188;DHT22;58893;53.130;8.158;2023-04-24T06:08:46;14.70;86.80
71188;DHT22;58893;53.130;8.158;2023-04-24T06:11:12;14.70;86.80
71188;DHT22;58893;53.130;8.158;2023-04-24T06:13:37;14.70;86.70
71188;DHT22;58893;53.130;8.158;2023-04-24T06:16:03;14.70;86.70
71188;DHT22;58893;53.130;8.158;2023-04-24T06:18:28;14.80;86.50
71188;DHT22;58893;53.130;8.158;2023-04-24T06:20:54;14.80;86.80
71188;DHT22;58893;53.130;8.158;2023-04-24T06:23:20;14.80;86.00
71188;DHT22;58893;53.130;8.158;2023-04-24T06:25:46;14.80;85.90
71188;DHT22;58893;53.130;8.158;2023-04-24T06:28:12;14.80;85.80
71188;DHT22;58893;53.130;8.158;2023-04-24T06:30:38;14.80;85.70
71188;DHT22;58893;53.130;8.158;2023-04-24T06:33:03;14.80;85.60
71188;DHT22;58893;53.130;8.158;2023-04-24T06:35:29;14.80;85.70
71188;DHT22;58893;53.130;8.158;2023-04-24T06:37:55;14.80;85.60
71188;DHT22;58893;53.130;8.158;2023-04-24T06:40:22;14.80;85.60
71188;DHT22;58893;53.130;8.158;2023-04-24T06:42:47;14.80;85.60
71188;DHT22;58893;53.130;8.158;2023-04-24T06:45:13;14.80;85.70
71188;DHT22;58893;53.130;8.158;2023-04-24T06:47:39;14.80;85.60
71188;DHT22;58893;53.130;8.158;2023-04-24T06:50:05;14.80;85.50
71188;DHT22;58893;53.130;8.158;2023-04-24T06:52:30;14.80;85.50
71188;DHT22;58893;53.130;8.158;2023-04-24T06:55:02;14.80;85.40
71188;DHT22;58893;53.130;8.158;2023-04-24T06:57:28;14.80;85.60
71188;DHT22;58893;53.130;8.158;2023-04-24T06:59:55;14.80;85.60
71188;DHT22;58893;53.130;8.158;2023-04-24T07:02:21;14.80;85.60
71188;DHT22;58893;53.130;8.158;2023-04-24T07:04:46;14.80;85.70
71188;DHT22;58893;53.130;8.158;2023-04-24T07:07:13;14.90;85.80
71188;DHT22;58893;53.130;8.158;2023-04-24T07:09:40;14.90;85.80
71188;DHT22;58893;53.130;8.158;2023-04-24T07:12:08;14.90;85.80
71188;DHT22;58893;53.130;8.158;2023-04-24T07:14:33;14.90;85.40
71188;DHT22;58893;53.130;8.158;2023-04-24T07:17:00;14.90;85.10
71188;DHT22;58893;53.130;8.158;2023-04-24T07:19:26;14.90;84.80
71188;DHT22;58893;53.130;8.158;2023-04-24T07:21:52;14.90;84.80
71188;DHT22;58893;53.130;8.158;2023-04-24T07:24:18;14.90;84.90
71188;DHT22;58893;53.130;8.158;2023-04-24T07:26:44;14.90;85.00
71188;DHT22;58893;53.130;8.158;2023-04-24T07:29:12;14.90;85.00
71188;DHT22;58893;53.130;8.158;2023-04-24T07:31:37;14.90;84.80
71188;DHT22;58893;53.130;8.158;2023-04-24T07:34:03;14.90;84.60
71188;DHT22;58893;53.130;8.158;2023-04-24T07:36:28;14.80;84.20
71188;DHT22;58893;53.130;8.158;2023-04-24T07:38:55;14.80;84.10
71188;DHT22;58893;53.130;8.158;2023-04-24T07:41:21;14.80;83.90
71188;DHT22;58893;53.130;8.158;2023-04-24T07:43:48;14.80;83.90
71188;DHT22;58893;53.130;8.158;2023-04-24T07:46:13;14.80;83.90
71188;DHT22;58893;53.130;8.158;2023-04-24T07:48:39;14.80;83.70
71188;DHT22;58893;53.130;8.158;2023-04-24T07:51:05;14.90;83.60
71188;DHT22;58893;53.130;8.158;2023-04-24T07:53:30;14.90;83.40
71188;DHT22;58893;53.130;8.158;2023-04-24T07:55:56;14.90;83.10
71188;DHT22;58893;53.130;8.158;2023-04-24T07:58:22;14.90;83.10
71188;DHT22;58893;53.130;8.158;2023-04-24T08:00:48;14.90;83.00
71188;DHT22;58893;53.130;8.158;2023-04-24T08:03:13;14.90;83.00
71188;DHT22;58893;53.130;8.158;2023-04-24T08:05:39;14.90;82.60
71188;DHT22;58893;53.130;8.158;2023-04-24T08:08:06;14.90;82.20
71188;DHT22;58893;53.130;8.158;2023-04-24T08:10:31;14.90;82.00
71188;DHT22;58893;53.130;8.158;2023-04-24T08:12:57;14.90;81.70
71188;DHT22;58893;53.130;8.158;2023-04-24T08:15:22;15.00;81.70
71188;DHT22;58893;53.130;8.158;2023-04-24T08:17:48;15.00;81.60
71188;DHT22;58893;53.130;8.158;2023-04-24T08:20:14;15.00;81.30
71188;DHT22;58893;53.130;8.158;2023-04-24T08:22:43;15.00;81.00
71188;DHT22;58893;53.130;8.158;2023-04-24T08:25:11;15.00;80.70
71188;DHT22;58893;53.130;8.158;2023-04-24T08:27:37;15.00;80.50
71188;DHT22;58893;53.130;8.158;2023-04-24T08:30:04;15.00;80.50
71188;DHT22;58893;53.130;8.158;2023-04-24T08:32:30;15.00;80.40
71188;DHT22;58893;53.130;8.158;2023-04-24T08:34:57;15.00;80.20
71188;DHT22;58893;53.130;8.158;2023-04-24T08:37:23;15.10;80.40
71188;DHT22;58893;53.130;8.158;2023-04-24T08:39:49;15.10;80.00
71188;DHT22;58893;53.130;8.158;2023-04-24T08:42:16;15.10;80.20
71188;DHT22;58893;53.130;8.158;2023-04-24T08:44:42;15.10;79.20
71188;DHT22;58893;53.130;8.158;2023-04-24T08:47:08;15.10;79.00
71188;DHT22;58893;53.130;8.158;2023-04-24T08:49:36;15.10;79.00
71188;DHT22;58893;53.130;8.158;2023-04-24T08:52:02;15.10;78.60
71188;DHT22;58893;53.130;8.158;2023-04-24T08:54:28;15.10;78.20
71188;DHT22;58893;53.130;8.158;2023-04-24T08:56:58;15.10;77.80
71188;DHT22;58893;53.130;8.158;2023-04-24T08:59:27;15.10;77.50
71188;DHT22;58893;53.130;8.158;2023-04-24T09:01:54;15.10;77.50
71188;DHT22;58893;53.130;8.158;2023-04-24T09:04:22;15.10;77.50
71188;DHT22;58893;53.130;8.158;2023-04-24T09:06:56;15.10;77.60
71188;DHT22;58893;53.130;8.158;2023-04-24T09:09:23;15.10;77.80
71188;DHT22;58893;53.130;8.158;2023-04-24T09:11:50;15.10;77.80
71188;DHT22;58893;53.130;8.158;2023-04-24T09:14:17;15.00;78.40
71188;DHT22;58893;53.130;8.158;2023-04-24T09:16:43;15.00;77.60
71188;DHT22;58893;53.130;8.158;2023-04-24T09:19:09;15.00;77.50
71188;DHT22;58893;53.130;8.158;2023-04-24T09:21:35;15.00;77.80
71188;DHT22;58893;53.130;8.158;2023-04-24T09:24:03;15.00;78.30
71188;DHT22;58893;53.130;8.158;2023-04-24T09:26:31;15.00;78.90
71188;DHT22;58893;53.130;8.158;2023-04-24T09:28:58;15.00;79.70
71188;DHT22;58893;53.130;8.158;2023-04-24T09:31:27;15.00;80.10
71188;DHT22;58893;53.130;8.158;2023-04-24T09:34:00;14.90;80.70
71188;DHT22;58893;53.130;8.158;2023-04-24T09:36:37;14.90;81.00
71188;DHT22;58893;53.130;8.158;2023-04-24T09:39:05;14.90;81.30
71188;DHT22;58893;53.130;8.158;2023-04-24T09:41:32;14.90;82.00
71188;DHT22;58893;53.130;8.158;2023-04-24T09:44:17;14.90;82.50
71188;DHT22;58893;53.130;8.158;2023-04-24T09:46:45;14.90;83.10
71188;DHT22;58893;53.130;8.158;2023-04-24T09:49:15;14.90;83.60
71188;DHT22;58893;53.130;8.158;2023-04-24T09:51:42;14.90;83.40
71188;DHT22;58893;53.130;8.158;2023-04-24T09:54:21;14.90;83.40
71188;DHT22;58893;53.130;8.158;2023-04-24T09:56:49;14.90;83.40
71188;DHT22;58893;53.130;8.158;2023-04-24T09:59:15;14.90;83.30
71188;DHT22;58893;53.130;8.158;2023-04-24T10:01:42;14.80;83.20
71188;DHT22;58893;53.130;8.158;2023-04-24T10:04:24;14.80;83.50
71188;DHT22;58893;53.130;8.158;2023-04-24T10:06:52;14.80;83.40
71188;DHT22;58893;53.130;8.158;2023-04-24T10:09:19;14.80;83.30
71188;DHT22;58893;53.130;8.158;2023-04-24T10:11:54;14.80;83.50
71188;DHT22;58893;53.130;8.158;2023-04-24T10:14:25;14.80;83.50
71188;DHT22;58893;53.130;8.158;2023-04-24T10:16:55;14.80;83.50
71188;DHT22;58893;53.130;8.158;2023-04-24T10:19:25;14.80;83.80
71188;DHT22;58893;53.130;8.158;2023-04-24T10:21:51;14.80;84.10
71188;DHT22;58893;53.130;8.158;2023-04-24T10:24:18;14.80;84.30
71188;DHT22;58893;53.130;8.158;2023-04-24T10:26:46;14.80;84.60
71188;DHT22;58893;53.130;8.158;2023-04-24T10:29:16;14.80;84.90
71188;DHT22;58893;53.130;8.158;2023-04-24T10:31:42;14.80;85.10
71188;DHT22;58893;53.130;8.158;2023-04-24T10:34:11;14.80;85.20
71188;DHT22;58893;53.130;8.158;2023-04-24T10:36:41;14.80;85.40
71188;DHT22;58893;53.130;8.158;2023-04-24T10:39:11;14.80;86.00
71188;DHT22;58893;53.130;8.158;2023-04-24T10:41:38;14.80;86.30
71188;DHT22;58893;53.130;8.158;2023-04-24T10:44:08;14.80;86.60
71188;DHT22;58893;53.130;8.158;2023-04-24T10:46:35;14.80;86.90
71188;DHT22;58893;53.130;8.158;2023-04-24T10:49:08;14.80;87.30
71188;DHT22;58893;53.130;8.158;2023-04-24T10:56:51;14.80;88.60
71188;DHT22;58893;53.130;8.158;2023-04-24T10:59:35;14.70;88.90
71188;DHT22;58893;53.130;8.158;2023-04-24T11:02:02;14.70;89.10
71188;DHT22;58893;53.130;8.158;2023-04-24T11:04:32;14.70;89.00
71188;DHT22;58893;53.130;8.158;2023-04-24T11:06:58;14.70;89.20
71188;DHT22;58893;53.130;8.158;2023-04-24T11:09:27;14.70;89.50
71188;DHT22;58893;53.130;8.158;2023-04-24T11:12:03;14.60;89.70
71188;DHT22;58893;53.130;8.158;2023-04-24T11:17:32;14.60;90.20
71188;DHT22;58893;53.130;8.158;2023-04-24T11:20:06;14.60;90.30
71188;DHT22;58893;53.130;8.158;2023-04-24T11:22:39;14.50;90.40
71188;DHT22;58893;53.130;8.158;2023-04-24T11:25:06;14.50;90.50
71188;DHT22;58893;53.130;8.158;2023-04-24T11:27:40;14.50;90.60
71188;DHT22;58893;53.130;8.158;2023-04-24T11:30:06;14.50;90.80
71188;DHT22;58893;53.130;8.158;2023-04-24T11:32:36;14.50;90.90
71188;DHT22;58893;53.130;8.158;2023-04-24T11:37:29;14.40;90.90
71188;DHT22;58893;53.130;8.158;2023-04-24T11:39:58;14.40;91.20
71188;DHT22;58893;53.130;8.158;2023-04-24T11:42:24;14.40;91.40
71188;DHT22;58893;53.130;8.158;2023-04-24T11:44:54;14.40;91.50
71188;DHT22;58893;53.130;8.158;2023-04-24T11:47:30;14.30;91.80
71188;DHT22;58893;53.130;8.158;2023-04-24T11:49:56;14.30;92.10
71188;DHT22;58893;53.130;8.158;2023-04-24T11:52:22;14.30;92.40
71188;DHT22;58893;53.130;8.158;2023-04-24T11:54:50;14.30;92.20
71188;DHT22;58893;53.130;8.158;2023-04-24T11:57:20;14.30;91.80
71188;DHT22;58893;53.130;8.158;2023-04-24T11:59:46;14.30;91.90
71188;DHT22;58893;53.130;8.158;2023-04-24T12:02:25;14.20;91.90
71188;DHT22;58893;53.130;8.158;2023-04-24T12:04:54;14.20;91.90
71188;DHT22;58893;53.130;8.158;2023-04-24T12:07:20;14.20;92.00
71188;DHT22;58893;53.130;8.158;2023-04-24T12:10:05;14.20;92.10
71188;DHT22;58893;53.130;8.158;2023-04-24T12:12:31;14.10;91.90
71188;DHT22;58893;53.130;8.158;2023-04-24T12:14:58;14.10;91.30
71188;DHT22;58893;53.130;8.158;2023-04-24T12:17:29;14.10;91.50
71188;DHT22;58893;53.130;8.158;2023-04-24T12:20:00;14.00;90.60
71188;DHT22;58893;53.130;8.158;2023-04-24T12:22:26;14.00;90.20
71188;DHT22;58893;53.130;8.158;2023-04-24T12:25:03;13.90;90.10
71188;DHT22;58893;53.130;8.158;2023-04-24T12:27:33;13.90;90.10
71188;DHT22;58893;53.130;8.158;2023-04-24T12:30:00;13.80;90.40
71188;DHT22;58893;53.130;8.158;2023-04-24T12:32:26;13.80;90.60
71188;DHT22;58893;53.130;8.158;2023-04-24T12:34:53;13.80;90.70
71188;DHT22;58893;53.130;8.158;2023-04-24T12:37:19;13.70;90.40
71188;DHT22;58893;53.130;8.158;2023-04-24T12:40:06;13.70;90.40
71188;DHT22;58893;53.130;8.158;2023-04-24T12:42:33;13.70;90.40
71188;DHT22;58893;53.130;8.158;2023-04-24T12:45:05;13.60;90.20
71188;DHT22;58893;53.130;8.158;2023-04-24T12:47:34;13.60;90.20
71188;DHT22;58893;53.130;8.158;2023-04-24T12:50:01;13.60;90.40
71188;DHT22;58893;53.130;8.158;2023-04-24T12:52:28;13.50;90.60
71188;DHT22;58893;53.130;8.158;2023-04-24T12:54:58;13.50;90.90
71188;DHT22;58893;53.130;8.158;2023-04-24T12:57:25;13.50;90.90
71188;DHT22;58893;53.130;8.158;2023-04-24T12:59:54;13.50;90.90
71188;DHT22;58893;53.130;8.158;2023-04-24T13:02:20;13.50;90.80
71188;DHT22;58893;53.130;8.158;2023-04-24T13:04:48;13.50;90.90
71188;DHT22;58893;53.130;8.158;2023-04-24T13:07:14;13.40;91.00
71188;DHT22;58893;53.130;8.158;2023-04-24T13:09:41;13.40;91.10
71188;DHT22;58893;53.130;8.158;2023-04-24T13:12:07;13.40;91.20
71188;DHT22;58893;53.130;8.158;2023-04-24T13:14:33;13.50;91.20
71188;DHT22;58893;53.130;8.158;2023-04-24T13:16:59;13.50;91.20
71188;DHT22;58893;53.130;8.158;2023-04-24T13:19:26;13.50;91.00
71188;DHT22;58893;53.130;8.158;2023-04-24T13:21:53;13.40;91.00
71188;DHT22;58893;53.130;8.158;2023-04-24T13:24:18;13.50;91.00
71188;DHT22;58893;53.130;8.158;2023-04-24T13:26:45;13.40;90.70
71188;DHT22;58893;53.130;8.158;2023-04-24T13:29:11;13.50;90.50
71188;DHT22;58893;53.130;8.158;2023-04-24T13:31:36;13.40;90.30
71188;DHT22;58893;53.130;8.158;2023-04-24T13:34:03;13.40;90.30
71188;DHT22;58893;53.130;8.158;2023-04-24T13:36:29;13.40;90.40
71188;DHT22;58893;53.130;8.158;2023-04-24T13:38:55;13.40;90.40
71188;DHT22;58893;53.130;8.158;2023-04-24T13:41:21;13.40;90.30
71188;DHT22;58893;53.130;8.158;2023-04-24T13:43:46;13.40;90.40
71188;DHT22;58893;53.130;8.158;2023-04-24T13:46:12;13.40;90.60
71188;DHT22;58893;53.130;8.158;2023-04-24T13:48:38;13.50;90.80
71188;DHT22;58893;53.130;8.158;2023-04-24T13:51:03;13.50;90.80
71188;DHT22;58893;53.130;8.158;2023-04-24T13:53:29;13.40;90.80
71188;DHT22;58893;53.130;8.158;2023-04-24T13:55:55;13.50;90.90
71188;DHT22;58893;53.130;8.158;2023-04-24T13:58:21;13.40;90.80
71188;DHT22;58893;53.130;8.158;2023-04-24T14:00:46;13.50;90.80
71188;DHT22;58893;53.130;8.158;2023-04-24T14:03:12;13.50;91.00
71188;DHT22;58893;53.130;8.158;2023-04-24T14:05:38;13.50;91.00
71188;DHT22;58893;53.130;8.158;2023-04-24T14:08:04;13.50;91.10
71188;DHT22;58893;53.130;8.158;2023-04-24T14:10:31;13.50;91.10
71188;DHT22;58893;53.130;8.158;2023-04-24T14:12:56;13.50;90.80
71188;DHT22;58893;53.130;8.158;2023-04-24T14:15:22;13.50;90.50
71188;DHT22;58893;53.130;8.158;2023-04-24T14:17:48;13.50;90.40
71188;DHT22;58893;53.130;8.158;2023-04-24T14:20:15;13.40;90.40
71188;DHT22;58893;53.130;8.158;2023-04-24T14:22:40;13.40;90.40
71188;DHT22;58893;53.130;8.158;2023-04-24T14:25:06;13.40;90.40
71188;DHT22;58893;53.130;8.158;2023-04-24T14:27:32;13.50;90.50
71188;DHT22;58893;53.130;8.158;2023-04-24T14:30:00;13.40;90.00
71188;DHT22;58893;53.130;8.158;2023-04-24T14:32:25;13.40;89.10
71188;DHT22;58893;53.130;8.158;2023-04-24T14:34:51;13.40;89.10
71188;DHT22;58893;53.130;8.158;2023-04-24T14:37:17;13.30;88.50
71188;DHT22;58893;53.130;8.158;2023-04-24T14:39:42;13.30;88.20
71188;DHT22;58893;53.130;8.158;2023-04-24T14:42:08;13.30;89.00
71188;DHT22;58893;53.130;8.158;2023-04-24T14:44:33;13.30;88.10
71188;DHT22;58893;53.130;8.158;2023-04-24T14:46:59;13.30;88.10
71188;DHT22;58893;53.130;8.158;2023-04-24T14:49:26;13.30;88.40
71188;DHT22;58893;53.130;8.158;2023-04-24T14:51:51;13.20;87.80
71188;DHT22;58893;53.130;8.158;2023-04-24T14:54:17;13.30;87.70
71188;DHT22;58893;53.130;8.158;2023-04-24T14:56:43;13.20;87.70
71188;DHT22;58893;53.130;8.158;2023-04-24T14:59:10;13.20;87.80
71188;DHT22;58893;53.130;8.158;2023-04-24T15:01:35;13.30;88.00
71188;DHT22;58893;53.130;8.158;2023-04-24T15:04:01;13.30;87.80
71188;DHT22;58893;53.130;8.158;2023-04-24T15:06:27;13.30;87.70
71188;DHT22;58893;53.130;8.158;2023-04-24T15:08:52;13.30;87.70
71188;DHT22;58893;53.130;8.158;2023-04-24T15:11:18;13.30;87.70
71188;DHT22;58893;53.130;8.158;2023-04-24T15:13:44;13.30;87.70
71188;DHT22;58893;53.130;8.158;2023-04-24T15:16:12;13.30;87.70
71188;DHT22;58893;53.130;8.158;2023-04-24T15:18:38;13.30;87.80
71188;DHT22;58893;53.130;8.158;2023-04-24T15:21:04;13.30;87.80
71188;DHT22;58893;53.130;8.158;2023-04-24T15:23:30;13.30;88.10
71188;DHT22;58893;53.130;8.158;2023-04-24T15:25:55;13.40;88.40
71188;DHT22;58893;53.130;8.158;2023-04-24T15:28:21;13.40;88.10
71188;DHT22;58893;53.130;8.158;2023-04-24T15:30:47;13.30;87.10
71188;DHT22;58893;53.130;8.158;2023-04-24T15:33:13;13.30;86.60
71188;DHT22;58893;53.130;8.158;2023-04-24T15:35:39;13.30;86.50
71188;DHT22;58893;53.130;8.158;2023-04-24T15:38:05;13.30;86.30